sensor_id;sensor_type;location;lat;lon;timestamp;P1;durP1;ratioP1;P2;durP2;ratioP2
19810;SDS011;10065;49.632;8.346;2024-02-15T08:15:58;11.70;;;4.53;;
19810;SDS011;10065;49.632;8.346;2024-02-15T08:22:10;9.53;;;4.40;;
19810;SDS011;10065;49.632;8.346;2024-02-15T08:25:00;11.27;;;4.23;;
19810;SDS011;10065;49.632;8.346;2024-02-15T08:42:57;8.93;;;3.63;;
19810;SDS011;10065;49.632;8.346;2024-02-15T08:45:44;7.03;;;3.40;;
19810;SDS011;10065;49.632;8.346;2024-02-15T08:48:32;6.87;;;3.37;;
19810;SDS011;10065;49.632;8.346;2024-02-15T08:51:14;9.30;;;3.53;;
19810;SDS011;10065;49.632;8.346;2024-02-15T08:54:09;5.67;;;2.90;;
19810;SDS011;10065;49.632;8.346;2024-02-15T08:57:09;10.27;;;3.33;;
19810;SDS011;10065;49.632;8.346;2024-02-15T09:00:16;7.40;;;3.23;;
19810;SDS011;10065;49.632;8.346;2024-02-15T09:03:35;7.37;;;3.10;;
19810;SDS011;10065;49.632;8.346;2024-02-15T09:10:08;6.03;;;2.60;;
19810;SDS011;10065;49.632;8.346;2024-02-15T09:12:56;6.27;;;2.90;;
19810;SDS011;10065;49.632;8.346;2024-02-15T09:15:30;8.97;;;3.10;;
19810;SDS011;10065;49.632;8.346;2024-02-15T09:18:34;7.87;;;2.73;;
19810;SDS011;10065;49.632;8.346;2024-02-15T09:24:47;5.60;;;2.60;;
19810;SDS011;10065;49.632;8.346;2024-02-15T09:27:32;8.20;;;2.33;;
19810;SDS011;10065;49.632;8.346;2024-02-15T09:30:53;6.90;;;2.93;;
19810;SDS011;10065;49.632;8.346;2024-02-15T09:34:05;5.63;;;3.10;;
19810;SDS011;10065;49.632;8.346;2024-02-15T09:36:45;6.60;;;3.00;;
19810;SDS011;10065;49.632;8.346;2024-02-15T09:39:32;5.10;;;3.00;;
19810;SDS011;10065;49.632;8.346;2024-02-15T09:42:36;6.83;;;2.83;;
19810;SDS011;10065;49.632;8.346;2024-02-15T09:45:42;10.53;;;3.40;;
19810;SDS011;10065;49.632;8.346;2024-02-15T09:52:44;5.53;;;3.00;;
19810;SDS011;10065;49.632;8.346;2024-02-15T09:55:43;6.63;;;2.53;;
19810;SDS011;10065;49.632;8.346;2024-02-15T09:58:51;9.17;;;3.00;;
19810;SDS011;10065;49.632;8.346;2024-02-15T10:01:27;5.93;;;2.70;;
19810;SDS011;10065;49.632;8.346;2024-02-15T10:04:39;4.50;;;2.57;;
19810;SDS011;10065;49.632;8.346;2024-02-15T10:07:29;7.50;;;2.87;;
19810;SDS011;10065;49.632;8.346;2024-02-15T10:10:14;7.60;;;2.77;;
19810;SDS011;10065;49.632;8.346;2024-02-15T10:16:18;6.93;;;2.67;;
19810;SDS011;10065;49.632;8.346;2024-02-15T10:19:18;7.17;;;2.93;;
19810;SDS011;10065;49.632;8.346;2024-02-15T10:22:14;6.90;;;2.83;;
19810;SDS011;10065;49.632;8.346;2024-02-15T10:28:42;4.30;;;2.20;;
19810;SDS011;10065;49.632;8.346;2024-02-15T10:32:03;6.13;;;2.60;;
19810;SDS011;10065;49.632;8.346;2024-02-15T10:39:09;7.33;;;2.40;;
19810;SDS011;10065;49.632;8.346;2024-02-15T10:42:09;7.77;;;2.63;;
19810;SDS011;10065;49.632;8.346;2024-02-15T10:45:37;8.70;;;2.77;;
19810;SDS011;10065;49.632;8.346;2024-02-15T10:49:01;7.60;;;2.47;;
19810;SDS011;10065;49.632;8.346;2024-02-15T10:51:50;6.37;;;2.20;;
19810;SDS011;10065;49.632;8.346;2024-02-15T10:55:09;9.03;;;2.57;;
19810;SDS011;10065;49.632;8.346;2024-02-15T11:51:04;6.33;;;2.60;;
19810;SDS011;10065;49.632;8.346;2024-02-15T11:54:23;7.40;;;2.43;;
19810;SDS011;10065;49.632;8.346;2024-02-15T12:01:51;8.73;;;2.70;;
19810;SDS011;10065;49.632;8.346;2024-02-15T12:05:26;5.77;;;2.50;;
19810;SDS011;10065;49.632;8.346;2024-02-15T12:16:25;7.90;;;2.53;;
19810;SDS011;10065;49.632;8.346;2024-02-15T12:19:27;7.50;;;2.50;;
19810;SDS011;10065;49.632;8.346;2024-02-15T12:22:57;5.43;;;2.20;;
19810;SDS011;10065;49.632;8.346;2024-02-15T12:26:09;8.87;;;2.17;;
19810;SDS011;10065;49.632;8.346;2024-02-15T12:29:19;5.27;;;2.17;;
19810;SDS011;10065;49.632;8.346;2024-02-15T12:49:49;9.50;;;2.23;;
19810;SDS011;10065;49.632;8.346;2024-02-15T12:53:15;6.83;;;2.57;;
19810;SDS011;10065;49.632;8.346;2024-02-15T12:56:35;9.47;;;2.27;;
19810;SDS011;10065;49.632;8.346;2024-02-15T13:00:01;5.47;;;2.20;;
19810;SDS011;10065;49.632;8.346;2024-02-15T14:03:04;6.47;;;1.83;;
19810;SDS011;10065;49.632;8.346;2024-02-15T14:05:33;4.93;;;1.97;;
19810;SDS011;10065;49.632;8.346;2024-02-15T14:08:02;8.37;;;2.50;;
19810;SDS011;10065;49.632;8.346;2024-02-15T14:10:32;5.63;;;2.60;;
19810;SDS011;10065;49.632;8.346;2024-02-15T14:13:03;10.83;;;3.20;;
19810;SDS011;10065;49.632;8.346;2024-02-15T14:15:33;5.53;;;1.90;;
19810;SDS011;10065;49.632;8.346;2024-02-15T14:18:05;7.03;;;2.27;;
19810;SDS011;10065;49.632;8.346;2024-02-15T14:20:37;11.03;;;2.23;;
19810;SDS011;10065;49.632;8.346;2024-02-15T14:23:06;7.53;;;2.10;;
19810;SDS011;10065;49.632;8.346;2024-02-15T14:25:40;7.50;;;2.23;;
19810;SDS011;10065;49.632;8.346;2024-02-15T14:28:09;6.20;;;2.00;;
19810;SDS011;10065;49.632;8.346;2024-02-15T14:30:39;5.97;;;2.07;;
19810;SDS011;10065;49.632;8.346;2024-02-15T14:33:26;8.50;;;2.00;;
19810;SDS011;10065;49.632;8.346;2024-02-15T14:36:09;7.30;;;2.60;;
19810;SDS011;10065;49.632;8.346;2024-02-15T14:38:38;5.87;;;2.47;;
19810;SDS011;10065;49.632;8.346;2024-02-15T14:41:06;6.80;;;1.97;;
19810;SDS011;10065;49.632;8.346;2024-02-15T14:43:39;8.10;;;2.10;;
19810;SDS011;10065;49.632;8.346;2024-02-15T14:46:08;7.80;;;2.63;;
19810;SDS011;10065;49.632;8.346;2024-02-15T14:48:38;10.73;;;2.87;;
19810;SDS011;10065;49.632;8.346;2024-02-15T14:51:07;8.63;;;2.47;;
19810;SDS011;10065;49.632;8.346;2024-02-15T14:53:37;6.73;;;2.27;;
19810;SDS011;10065;49.632;8.346;2024-02-15T14:57:11;8.57;;;2.67;;
19810;SDS011;10065;49.632;8.346;2024-02-15T15:46:41;8.10;;;2.70;;
19810;SDS011;10065;49.632;8.346;2024-02-15T15:49:10;8.30;;;2.97;;
19810;SDS011;10065;49.632;8.346;2024-02-15T15:54:40;8.73;;;2.80;;
19810;SDS011;10065;49.632;8.346;2024-02-15T15:57:15;8.57;;;2.60;;
19810;SDS011;10065;49.632;8.346;2024-02-15T15:59:56;6.83;;;2.57;;
19810;SDS011;10065;49.632;8.346;2024-02-15T16:02:47;4.73;;;1.90;;
19810;SDS011;10065;49.632;8.346;2024-02-15T16:05:19;8.03;;;2.17;;
19810;SDS011;10065;49.632;8.346;2024-02-15T16:07:56;8.87;;;2.20;;
19810;SDS011;10065;49.632;8.346;2024-02-15T16:11:04;7.17;;;1.97;;
19810;SDS011;10065;49.632;8.346;2024-02-15T16:14:06;6.57;;;2.03;;
19810;SDS011;10065;49.632;8.346;2024-02-15T16:16:48;10.27;;;1.93;;
19810;SDS011;10065;49.632;8.346;2024-02-15T16:19:56;8.67;;;2.60;;
19810;SDS011;10065;49.632;8.346;2024-02-15T16:23:07;7.77;;;2.63;;
19810;SDS011;10065;49.632;8.346;2024-02-15T16:26:21;5.33;;;2.13;;
19810;SDS011;10065;49.632;8.346;2024-02-15T16:29:17;5.57;;;2.17;;
19810;SDS011;10065;49.632;8.346;2024-02-15T16:32:19;12.97;;;2.90;;
19810;SDS011;10065;49.632;8.346;2024-02-15T16:52:36;7.40;;;2.80;;
19810;SDS011;10065;49.632;8.346;2024-02-15T16:55:30;14.73;;;3.87;;
19810;SDS011;10065;49.632;8.346;2024-02-15T16:58:50;11.87;;;3.50;;
19810;SDS011;10065;49.632;8.346;2024-02-15T17:01:38;8.20;;;3.60;;
19810;SDS011;10065;49.632;8.346;2024-02-15T17:05:00;8.17;;;3.47;;
19810;SDS011;10065;49.632;8.346;2024-02-15T17:50:29;19.67;;;5.37;;
19810;SDS011;10065;49.632;8.346;2024-02-15T17:52:58;14.20;;;5.40;;
19810;SDS011;10065;49.632;8.346;2024-02-15T17:55:32;13.43;;;4.90;;
19810;SDS011;10065;49.632;8.346;2024-02-15T17:58:01;13.00;;;4.90;;
19810;SDS011;10065;49.632;8.346;2024-02-15T18:00:29;14.10;;;5.30;;
19810;SDS011;10065;49.632;8.346;2024-02-15T18:03:02;15.17;;;4.40;;
19810;SDS011;10065;49.632;8.346;2024-02-15T18:05:33;15.67;;;5.53;;
19810;SDS011;10065;49.632;8.346;2024-02-15T18:08:05;14.23;;;6.60;;
19810;SDS011;10065;49.632;8.346;2024-02-15T18:10:35;12.90;;;6.60;;
19810;SDS011;10065;49.632;8.346;2024-02-15T18:13:03;14.37;;;6.27;;
19810;SDS011;10065;49.632;8.346;2024-02-15T18:15:32;12.23;;;6.60;;
19810;SDS011;10065;49.632;8.346;2024-02-15T18:18:08;12.37;;;6.00;;
19810;SDS011;10065;49.632;8.346;2024-02-15T18:20:39;9.97;;;5.97;;
19810;SDS011;10065;49.632;8.346;2024-02-15T18:23:10;10.93;;;5.40;;
19810;SDS011;10065;49.632;8.346;2024-02-15T18:25:39;12.57;;;6.40;;
19810;SDS011;10065;49.632;8.346;2024-02-15T18:28:08;11.10;;;5.40;;
19810;SDS011;10065;49.632;8.346;2024-02-15T18:30:39;16.50;;;6.33;;
19810;SDS011;10065;49.632;8.346;2024-02-15T18:33:14;13.50;;;6.60;;
19810;SDS011;10065;49.632;8.346;2024-02-15T18:35:45;15.20;;;6.50;;
19810;SDS011;10065;49.632;8.346;2024-02-15T18:38:13;20.57;;;6.77;;
19810;SDS011;10065;49.632;8.346;2024-02-15T18:40:42;15.17;;;8.10;;
19810;SDS011;10065;49.632;8.346;2024-02-15T18:43:10;13.80;;;6.90;;
19810;SDS011;10065;49.632;8.346;2024-02-15T18:45:41;23.97;;;7.13;;
19810;SDS011;10065;49.632;8.346;2024-02-15T18:48:09;12.83;;;6.63;;
19810;SDS011;10065;49.632;8.346;2024-02-15T18:50:38;15.63;;;7.10;;
19810;SDS011;10065;49.632;8.346;2024-02-15T18:53:07;17.73;;;8.33;;
19810;SDS011;10065;49.632;8.346;2024-02-15T18:55:39;20.40;;;8.00;;
19810;SDS011;10065;49.632;8.346;2024-02-15T18:58:07;20.23;;;8.43;;
19810;SDS011;10065;49.632;8.346;2024-02-15T19:00:36;19.67;;;8.37;;
19810;SDS011;10065;49.632;8.346;2024-02-15T19:03:21;18.83;;;8.43;;
19810;SDS011;10065;49.632;8.346;2024-02-15T19:05:49;17.57;;;7.30;;
19810;SDS011;10065;49.632;8.346;2024-02-15T19:08:19;19.03;;;7.67;;
19810;SDS011;10065;49.632;8.346;2024-02-15T19:10:47;17.43;;;7.27;;
19810;SDS011;10065;49.632;8.346;2024-02-15T19:13:15;18.00;;;10.10;;
19810;SDS011;10065;49.632;8.346;2024-02-15T19:15:45;17.87;;;9.47;;
19810;SDS011;10065;49.632;8.346;2024-02-15T19:18:16;16.10;;;8.50;;
19810;SDS011;10065;49.632;8.346;2024-02-15T19:20:44;21.13;;;8.40;;
19810;SDS011;10065;49.632;8.346;2024-02-15T19:23:12;19.27;;;8.50;;
19810;SDS011;10065;49.632;8.346;2024-02-15T19:25:41;16.97;;;7.83;;
19810;SDS011;10065;49.632;8.346;2024-02-15T19:28:11;18.30;;;9.00;;
19810;SDS011;10065;49.632;8.346;2024-02-15T19:30:39;23.50;;;9.20;;
19810;SDS011;10065;49.632;8.346;2024-02-15T19:33:09;21.33;;;9.30;;
19810;SDS011;10065;49.632;8.346;2024-02-15T19:35:39;16.43;;;8.33;;
19810;SDS011;10065;49.632;8.346;2024-02-15T19:38:08;14.40;;;8.07;;
19810;SDS011;10065;49.632;8.346;2024-02-15T19:40:36;19.63;;;8.77;;
19810;SDS011;10065;49.632;8.346;2024-02-15T19:43:09;17.50;;;9.43;;
19810;SDS011;10065;49.632;8.346;2024-02-15T19:45:40;20.93;;;8.90;;
19810;SDS011;10065;49.632;8.346;2024-02-15T19:48:12;14.57;;;8.53;;
19810;SDS011;10065;49.632;8.346;2024-02-15T19:50:40;18.77;;;7.87;;
19810;SDS011;10065;49.632;8.346;2024-02-15T19:53:08;24.13;;;9.40;;
19810;SDS011;10065;49.632;8.346;2024-02-15T19:55:36;20.53;;;8.63;;
19810;SDS011;10065;49.632;8.346;2024-02-15T19:58:04;23.93;;;9.40;;
19810;SDS011;10065;49.632;8.346;2024-02-15T20:00:34;17.60;;;9.03;;
19810;SDS011;10065;49.632;8.346;2024-02-15T20:03:03;22.50;;;9.17;;
19810;SDS011;10065;49.632;8.346;2024-02-15T20:05:32;21.77;;;9.23;;
19810;SDS011;10065;49.632;8.346;2024-02-15T20:08:00;22.10;;;8.97;;
19810;SDS011;10065;49.632;8.346;2024-02-15T20:10:28;21.00;;;9.60;;
19810;SDS011;10065;49.632;8.346;2024-02-15T20:12:57;23.23;;;9.87;;
19810;SDS011;10065;49.632;8.346;2024-02-15T20:15:25;17.27;;;9.17;;
19810;SDS011;10065;49.632;8.346;2024-02-15T20:17:58;17.23;;;9.10;;
19810;SDS011;10065;49.632;8.346;2024-02-15T20:20:26;23.03;;;10.33;;
19810;SDS011;10065;49.632;8.346;2024-02-15T20:22:56;27.43;;;9.90;;
19810;SDS011;10065;49.632;8.346;2024-02-15T20:26:28;17.50;;;9.90;;
